sensor_id;sensor_type;location;lat;lon;timestamp;temperature;humidity
60717;DHT22;46566;52.700;6.192;2023-06-19T05:33:06;20.80;99.90
60717;DHT22;46566;52.700;6.192;2023-06-19T05:35:32;20.90;99.90
60717;DHT22;46566;52.700;6.192;2023-06-19T05:37:58;20.90;99.90
60717;DHT22;46566;52.700;6.192;2023-06-19T05:40:24;20.90;99.90
60717;DHT22;46566;52.700;6.192;2023-06-19T05:42:50;20.90;99.90
60717;DHT22;46566;52.700;6.192;2023-06-19T05:45:16;20.90;99.90
60717;DHT22;46566;52.700;6.192;2023-06-19T05:47:42;21.00;99.90
60717;DHT22;46566;52.700;6.192;2023-06-19T05:50:09;21.00;99.90
60717;DHT22;46566;52.700;6.192;2023-06-19T05:52:34;21.00;99.90
60717;DHT22;46566;52.700;6.192;2023-06-19T05:55:00;21.10;99.90
60717;DHT22;46566;52.700;6.192;2023-06-19T05:57:27;21.10;99.90
60717;DHT22;46566;52.700;6.192;2023-06-19T05:59:52;21.00;99.90
60717;DHT22;46566;52.700;6.192;2023-06-19T06:02:19;20.80;99.90
60717;DHT22;46566;52.700;6.192;2023-06-19T06:04:45;20.70;99.90
60717;DHT22;46566;52.700;6.192;2023-06-19T06:07:11;20.60;99.90
60717;DHT22;46566;52.700;6.192;2023-06-19T06:09:37;20.50;99.90
60717;DHT22;46566;52.700;6.192;2023-06-19T06:12:03;20.50;99.90
60717;DHT22;46566;52.700;6.192;2023-06-19T06:14:29;20.50;99.90
60717;DHT22;46566;52.700;6.192;2023-06-19T06:16:54;20.50;99.90
60717;DHT22;46566;52.700;6.192;2023-06-19T06:19:20;20.50;99.90
60717;DHT22;46566;52.700;6.192;2023-06-19T06:21:48;20.40;99.90
60717;DHT22;46566;52.700;6.192;2023-06-19T06:24:14;20.40;99.90
60717;DHT22;46566;52.700;6.192;2023-06-19T06:26:40;20.50;99.90
60717;DHT22;46566;52.700;6.192;2023-06-19T06:29:07;20.50;99.90
60717;DHT22;46566;52.700;6.192;2023-06-19T06:31:33;20.40;99.90
60717;DHT22;46566;52.700;6.192;2023-06-19T06:33:59;20.40;99.90
60717;DHT22;46566;52.700;6.192;2023-06-19T06:36:25;20.50;99.90
60717;DHT22;46566;52.700;6.192;2023-06-19T06:38:50;20.40;99.90
60717;DHT22;46566;52.700;6.192;2023-06-19T06:41:16;20.50;99.90
60717;DHT22;46566;52.700;6.192;2023-06-19T06:43:42;20.50;99.90
60717;DHT22;46566;52.700;6.192;2023-06-19T06:46:08;20.50;99.90
60717;DHT22;46566;52.700;6.192;2023-06-19T06:48:34;20.50;99.90
60717;DHT22;46566;52.700;6.192;2023-06-19T06:51:00;20.50;99.90
60717;DHT22;46566;52.700;6.192;2023-06-19T06:53:29;20.50;99.90
60717;DHT22;46566;52.700;6.192;2023-06-19T06:55:58;20.60;99.90
60717;DHT22;46566;52.700;6.192;2023-06-19T06:58:25;20.60;99.90
60717;DHT22;46566;52.700;6.192;2023-06-19T07:00:50;20.60;99.90
60717;DHT22;46566;52.700;6.192;2023-06-19T07:03:17;20.60;99.90
60717;DHT22;46566;52.700;6.192;2023-06-19T07:05:44;20.60;99.90
60717;DHT22;46566;52.700;6.192;2023-06-19T07:08:10;20.60;99.90
60717;DHT22;46566;52.700;6.192;2023-06-19T07:10:35;20.60;99.90
60717;DHT22;46566;52.700;6.192;2023-06-19T07:13:01;20.60;99.90
60717;DHT22;46566;52.700;6.192;2023-06-19T07:15:27;20.50;99.90
60717;DHT22;46566;52.700;6.192;2023-06-19T07:17:52;20.50;99.90
60717;DHT22;46566;52.700;6.192;2023-06-19T07:20:18;20.50;99.90
60717;DHT22;46566;52.700;6.192;2023-06-19T07:22:44;20.40;99.90
60717;DHT22;46566;52.700;6.192;2023-06-19T07:25:11;20.40;99.90
60717;DHT22;46566;52.700;6.192;2023-06-19T07:27:40;20.40;99.90
60717;DHT22;46566;52.700;6.192;2023-06-19T07:30:07;20.50;99.90
60717;DHT22;46566;52.700;6.192;2023-06-19T07:32:32;20.50;99.90
60717;DHT22;46566;52.700;6.192;2023-06-19T07:34:58;20.50;99.90
60717;DHT22;46566;52.700;6.192;2023-06-19T07:37:24;20.50;99.90
60717;DHT22;46566;52.700;6.192;2023-06-19T07:39:51;20.50;99.90
60717;DHT22;46566;52.700;6.192;2023-06-19T07:42:18;20.50;99.90
60717;DHT22;46566;52.700;6.192;2023-06-19T07:44:44;20.60;99.90
60717;DHT22;46566;52.700;6.192;2023-06-19T07:47:10;20.60;99.90
60717;DHT22;46566;52.700;6.192;2023-06-19T07:49:36;20.60;99.90
60717;DHT22;46566;52.700;6.192;2023-06-19T07:52:05;20.60;99.90
60717;DHT22;46566;52.700;6.192;2023-06-19T07:54:34;20.70;99.90
60717;DHT22;46566;52.700;6.192;2023-06-19T07:56:59;20.80;99.90
60717;DHT22;46566;52.700;6.192;2023-06-19T07:59:25;20.90;99.90
60717;DHT22;46566;52.700;6.192;2023-06-19T08:01:52;21.00;99.90
60717;DHT22;46566;52.700;6.192;2023-06-19T08:04:17;21.10;99.90
60717;DHT22;46566;52.700;6.192;2023-06-19T08:06:43;21.20;99.90
60717;DHT22;46566;52.700;6.192;2023-06-19T08:09:09;21.20;99.90
60717;DHT22;46566;52.700;6.192;2023-06-19T08:11:34;21.20;99.90
60717;DHT22;46566;52.700;6.192;2023-06-19T08:14:00;21.30;99.90
60717;DHT22;46566;52.700;6.192;2023-06-19T08:16:26;21.30;99.90
60717;DHT22;46566;52.700;6.192;2023-06-19T08:18:52;21.30;99.90
60717;DHT22;46566;52.700;6.192;2023-06-19T08:21:17;21.30;99.90
60717;DHT22;46566;52.700;6.192;2023-06-19T08:23:43;21.30;99.90
60717;DHT22;46566;52.700;6.192;2023-06-19T08:26:10;21.30;99.90
60717;DHT22;46566;52.700;6.192;2023-06-19T08:28:36;21.30;99.90
60717;DHT22;46566;52.700;6.192;2023-06-19T08:31:02;21.30;99.90
60717;DHT22;46566;52.700;6.192;2023-06-19T08:33:28;21.50;99.90
60717;DHT22;46566;52.700;6.192;2023-06-19T08:35:54;21.60;99.90
60717;DHT22;46566;52.700;6.192;2023-06-19T08:38:19;21.60;99.90
60717;DHT22;46566;52.700;6.192;2023-06-19T08:40:45;21.70;99.90
60717;DHT22;46566;52.700;6.192;2023-06-19T08:43:11;21.80;99.90
60717;DHT22;46566;52.700;6.192;2023-06-19T08:45:37;21.80;99.90
60717;DHT22;46566;52.700;6.192;2023-06-19T08:48:03;21.90;99.90
60717;DHT22;46566;52.700;6.192;2023-06-19T08:50:35;21.90;99.90
60717;DHT22;46566;52.700;6.192;2023-06-19T08:53:00;21.90;99.90
60717;DHT22;46566;52.700;6.192;2023-06-19T08:55:26;22.00;99.90
60717;DHT22;46566;52.700;6.192;2023-06-19T08:57:52;22.20;99.90
60717;DHT22;46566;52.700;6.192;2023-06-19T09:00:25;22.50;99.90
60717;DHT22;46566;52.700;6.192;2023-06-19T09:02:52;22.50;99.90
60717;DHT22;46566;52.700;6.192;2023-06-19T09:05:19;22.40;99.90
60717;DHT22;46566;52.700;6.192;2023-06-19T09:07:57;22.50;99.90
60717;DHT22;46566;52.700;6.192;2023-06-19T09:10:24;22.50;99.90
60717;DHT22;46566;52.700;6.192;2023-06-19T09:12:57;22.60;99.90
60717;DHT22;46566;52.700;6.192;2023-06-19T09:15:31;22.60;99.90
60717;DHT22;46566;52.700;6.192;2023-06-19T09:18:08;22.70;99.90
60717;DHT22;46566;52.700;6.192;2023-06-19T09:20:41;22.70;99.90
60717;DHT22;46566;52.700;6.192;2023-06-19T09:23:11;22.50;99.90
60717;DHT22;46566;52.700;6.192;2023-06-19T09:25:52;22.30;99.90
60717;DHT22;46566;52.700;6.192;2023-06-19T09:28:25;22.10;99.90
60717;DHT22;46566;52.700;6.192;2023-06-19T09:33:23;22.10;99.90
60717;DHT22;46566;52.700;6.192;2023-06-19T09:35:50;22.20;99.90
60717;DHT22;46566;52.700;6.192;2023-06-19T09:38:17;22.30;99.90
60717;DHT22;46566;52.700;6.192;2023-06-19T09:40:47;22.30;99.90
60717;DHT22;46566;52.700;6.192;2023-06-19T09:43:14;22.40;99.90
60717;DHT22;46566;52.700;6.192;2023-06-19T09:45:41;22.40;99.90
60717;DHT22;46566;52.700;6.192;2023-06-19T09:48:09;22.30;99.90
60717;DHT22;46566;52.700;6.192;2023-06-19T09:50:51;22.30;99.90
60717;DHT22;46566;52.700;6.192;2023-06-19T09:53:19;22.20;99.90
60717;DHT22;46566;52.700;6.192;2023-06-19T09:55:48;22.10;99.90
60717;DHT22;46566;52.700;6.192;2023-06-19T09:58:19;22.10;99.90
60717;DHT22;46566;52.700;6.192;2023-06-19T10:00:46;22.20;99.90
60717;DHT22;46566;52.700;6.192;2023-06-19T10:03:13;22.20;99.90
60717;DHT22;46566;52.700;6.192;2023-06-19T10:05:39;22.20;99.90
60717;DHT22;46566;52.700;6.192;2023-06-19T10:08:08;22.30;99.90
60717;DHT22;46566;52.700;6.192;2023-06-19T10:10:35;22.30;99.90
60717;DHT22;46566;52.700;6.192;2023-06-19T10:13:16;22.20;99.90
60717;DHT22;46566;52.700;6.192;2023-06-19T10:15:43;22.30;99.90
60717;DHT22;46566;52.700;6.192;2023-06-19T10:18:17;22.20;99.90
60717;DHT22;46566;52.700;6.192;2023-06-19T10:20:44;22.20;99.90
60717;DHT22;46566;52.700;6.192;2023-06-19T10:23:17;22.20;99.90
60717;DHT22;46566;52.700;6.192;2023-06-19T10:26:15;22.20;99.90
60717;DHT22;46566;52.700;6.192;2023-06-19T10:29:17;22.30;99.90
60717;DHT22;46566;52.700;6.192;2023-06-19T10:31:43;22.40;99.90
60717;DHT22;46566;52.700;6.192;2023-06-19T10:34:10;22.30;99.90
60717;DHT22;46566;52.700;6.192;2023-06-19T10:36:37;22.30;99.90
60717;DHT22;46566;52.700;6.192;2023-06-19T10:39:03;22.40;99.90
60717;DHT22;46566;52.700;6.192;2023-06-19T10:41:29;22.60;99.90
60717;DHT22;46566;52.700;6.192;2023-06-19T10:46:32;22.80;99.90
60717;DHT22;46566;52.700;6.192;2023-06-19T10:49:02;22.90;99.90
60717;DHT22;46566;52.700;6.192;2023-06-19T10:51:40;22.90;99.90
60717;DHT22;46566;52.700;6.192;2023-06-19T10:54:08;23.00;99.90
60717;DHT22;46566;52.700;6.192;2023-06-19T10:56:34;23.20;99.90
60717;DHT22;46566;52.700;6.192;2023-06-19T10:59:04;23.30;99.90
60717;DHT22;46566;52.700;6.192;2023-06-19T11:01:41;23.50;99.90
60717;DHT22;46566;52.700;6.192;2023-06-19T11:04:09;23.60;99.90
60717;DHT22;46566;52.700;6.192;2023-06-19T11:06:36;23.70;99.90
60717;DHT22;46566;52.700;6.192;2023-06-19T11:09:02;23.70;99.90
60717;DHT22;46566;52.700;6.192;2023-06-19T11:11:41;23.80;99.90
60717;DHT22;46566;52.700;6.192;2023-06-19T11:14:08;23.80;99.90
60717;DHT22;46566;52.700;6.192;2023-06-19T11:16:34;23.90;99.90
60717;DHT22;46566;52.700;6.192;2023-06-19T11:19:01;23.80;99.90
60717;DHT22;46566;52.700;6.192;2023-06-19T11:21:34;23.90;99.90
60717;DHT22;46566;52.700;6.192;2023-06-19T11:24:03;24.00;99.90
60717;DHT22;46566;52.700;6.192;2023-06-19T11:26:29;23.90;99.90
60717;DHT22;46566;52.700;6.192;2023-06-19T11:28:55;23.90;99.90
60717;DHT22;46566;52.700;6.192;2023-06-19T11:31:25;23.80;99.90
60717;DHT22;46566;52.700;6.192;2023-06-19T11:33:59;23.80;99.90
60717;DHT22;46566;52.700;6.192;2023-06-19T11:36:25;23.80;99.90
60717;DHT22;46566;52.700;6.192;2023-06-19T11:38:53;24.00;99.90
60717;DHT22;46566;52.700;6.192;2023-06-19T11:41:29;24.10;99.90
60717;DHT22;46566;52.700;6.192;2023-06-19T11:44:07;24.20;99.90
60717;DHT22;46566;52.700;6.192;2023-06-19T11:46:34;24.40;99.90
60717;DHT22;46566;52.700;6.192;2023-06-19T11:49:18;24.50;99.90
60717;DHT22;46566;52.700;6.192;2023-06-19T11:51:46;24.70;99.90
60717;DHT22;46566;52.700;6.192;2023-06-19T11:54:13;24.90;99.90
60717;DHT22;46566;52.700;6.192;2023-06-19T11:56:40;25.10;99.90
60717;DHT22;46566;52.700;6.192;2023-06-19T11:59:06;25.40;99.90
60717;DHT22;46566;52.700;6.192;2023-06-19T12:01:33;25.50;99.90
60717;DHT22;46566;52.700;6.192;2023-06-19T12:04:00;25.50;99.90
60717;DHT22;46566;52.700;6.192;2023-06-19T12:06:26;25.60;99.90
60717;DHT22;46566;52.700;6.192;2023-06-19T12:08:52;25.60;99.90
60717;DHT22;46566;52.700;6.192;2023-06-19T12:11:18;25.70;99.90
60717;DHT22;46566;52.700;6.192;2023-06-19T12:13:44;25.50;99.90
60717;DHT22;46566;52.700;6.192;2023-06-19T12:16:10;25.50;99.90
60717;DHT22;46566;52.700;6.192;2023-06-19T12:18:36;25.70;99.90
60717;DHT22;46566;52.700;6.192;2023-06-19T12:21:02;26.20;99.90
60717;DHT22;46566;52.700;6.192;2023-06-19T12:23:28;26.00;99.90
60717;DHT22;46566;52.700;6.192;2023-06-19T12:25:54;26.10;99.90
60717;DHT22;46566;52.700;6.192;2023-06-19T12:28:19;26.20;99.90
60717;DHT22;46566;52.700;6.192;2023-06-19T12:30:47;26.20;99.90
60717;DHT22;46566;52.700;6.192;2023-06-19T12:33:16;26.10;99.90
60717;DHT22;46566;52.700;6.192;2023-06-19T12:35:43;26.20;99.90
60717;DHT22;46566;52.700;6.192;2023-06-19T12:38:09;26.40;99.90
60717;DHT22;46566;52.700;6.192;2023-06-19T12:40:36;26.30;99.90
60717;DHT22;46566;52.700;6.192;2023-06-19T12:43:02;26.40;99.90
60717;DHT22;46566;52.700;6.192;2023-06-19T12:45:28;26.50;99.90
60717;DHT22;46566;52.700;6.192;2023-06-19T12:47:54;26.60;99.90
60717;DHT22;46566;52.700;6.192;2023-06-19T12:50:20;26.70;99.10
60717;DHT22;46566;52.700;6.192;2023-06-19T12:52:45;26.80;98.90
60717;DHT22;46566;52.700;6.192;2023-06-19T12:55:11;26.90;98.10
60717;DHT22;46566;52.700;6.192;2023-06-19T12:57:37;27.10;97.30
60717;DHT22;46566;52.700;6.192;2023-06-19T13:00:03;27.10;97.20
60717;DHT22;46566;52.700;6.192;2023-06-19T13:02:33;27.20;97.60
60717;DHT22;46566;52.700;6.192;2023-06-19T13:05:00;27.20;96.70
60717;DHT22;46566;52.700;6.192;2023-06-19T13:07:26;27.10;95.90
60717;DHT22;46566;52.700;6.192;2023-06-19T13:09:51;27.20;96.40
60717;DHT22;46566;52.700;6.192;2023-06-19T13:12:17;27.20;95.20
60717;DHT22;46566;52.700;6.192;2023-06-19T13:14:42;27.20;95.90
60717;DHT22;46566;52.700;6.192;2023-06-19T13:17:08;27.20;95.50
60717;DHT22;46566;52.700;6.192;2023-06-19T13:19:34;27.20;94.30
60717;DHT22;46566;52.700;6.192;2023-06-19T13:22:00;27.20;94.80
60717;DHT22;46566;52.700;6.192;2023-06-19T13:24:26;27.20;94.20
60717;DHT22;46566;52.700;6.192;2023-06-19T13:26:54;27.30;94.20
60717;DHT22;46566;52.700;6.192;2023-06-19T13:29:20;27.20;93.60
60717;DHT22;46566;52.700;6.192;2023-06-19T13:31:46;27.30;93.20
60717;DHT22;46566;52.700;6.192;2023-06-19T13:34:11;27.40;92.00
60717;DHT22;46566;52.700;6.192;2023-06-19T13:36:37;27.50;91.90
60717;DHT22;46566;52.700;6.192;2023-06-19T13:39:04;27.50;91.20
60717;DHT22;46566;52.700;6.192;2023-06-19T13:41:30;27.60;90.80
60717;DHT22;46566;52.700;6.192;2023-06-19T13:43:59;27.60;91.50
60717;DHT22;46566;52.700;6.192;2023-06-19T13:46:25;27.80;90.30
60717;DHT22;46566;52.700;6.192;2023-06-19T13:48:51;27.90;88.90
60717;DHT22;46566;52.700;6.192;2023-06-19T13:51:18;28.00;88.30
60717;DHT22;46566;52.700;6.192;2023-06-19T13:53:44;28.00;87.70
60717;DHT22;46566;52.700;6.192;2023-06-19T13:56:10;27.90;84.60
60717;DHT22;46566;52.700;6.192;2023-06-19T13:58:36;28.10;84.80
60717;DHT22;46566;52.700;6.192;2023-06-19T14:01:05;28.10;83.20
60717;DHT22;46566;52.700;6.192;2023-06-19T14:03:31;28.10;82.20
60717;DHT22;46566;52.700;6.192;2023-06-19T14:05:57;28.10;82.40
60717;DHT22;46566;52.700;6.192;2023-06-19T14:08:23;28.30;82.10
60717;DHT22;46566;52.700;6.192;2023-06-19T14:10:50;28.30;82.10
60717;DHT22;46566;52.700;6.192;2023-06-19T14:13:16;28.20;80.90
60717;DHT22;46566;52.700;6.192;2023-06-19T14:15:42;28.30;81.50
60717;DHT22;46566;52.700;6.192;2023-06-19T14:20:57;28.30;81.20
60717;DHT22;46566;52.700;6.192;2023-06-19T14:26:29;28.20;78.10
60717;DHT22;46566;52.700;6.192;2023-06-19T14:28:55;28.30;79.50
60717;DHT22;46566;52.700;6.192;2023-06-19T14:31:23;28.30;80.50
60717;DHT22;46566;52.700;6.192;2023-06-19T14:40:06;28.40;76.40
60717;DHT22;46566;52.700;6.192;2023-06-19T14:42:32;28.40;76.80
60717;DHT22;46566;52.700;6.192;2023-06-19T14:44:58;28.50;76.20
60717;DHT22;46566;52.700;6.192;2023-06-19T14:47:48;28.50;75.30
60717;DHT22;46566;52.700;6.192;2023-06-19T14:50:15;28.50;75.30
60717;DHT22;46566;52.700;6.192;2023-06-19T14:52:41;28.50;73.40
60717;DHT22;46566;52.700;6.192;2023-06-19T15:03:53;28.30;74.70
60717;DHT22;46566;52.700;6.192;2023-06-19T15:09:16;28.30;73.60
60717;DHT22;46566;52.700;6.192;2023-06-19T15:11:42;28.30;71.30
60717;DHT22;46566;52.700;6.192;2023-06-19T15:14:08;28.20;71.60
60717;DHT22;46566;52.700;6.192;2023-06-19T15:16:33;28.20;71.80
60717;DHT22;46566;52.700;6.192;2023-06-19T15:24:58;28.30;71.00
60717;DHT22;46566;52.700;6.192;2023-06-19T15:27:23;28.30;70.30
60717;DHT22;46566;52.700;6.192;2023-06-19T15:45:23;28.10;72.40
60717;DHT22;46566;52.700;6.192;2023-06-19T15:47:49;27.90;72.90
60717;DHT22;46566;52.700;6.192;2023-06-19T15:50:15;27.90;73.40
60717;DHT22;46566;52.700;6.192;2023-06-19T15:55:36;27.80;73.80
60717;DHT22;46566;52.700;6.192;2023-06-19T15:58:02;27.70;73.40
60717;DHT22;46566;52.700;6.192;2023-06-19T16:00:27;27.60;73.80
60717;DHT22;46566;52.700;6.192;2023-06-19T16:03:19;27.50;73.60
60717;DHT22;46566;52.700;6.192;2023-06-19T16:05:46;27.40;73.50
60717;DHT22;46566;52.700;6.192;2023-06-19T16:08:19;27.40;73.80
60717;DHT22;46566;52.700;6.192;2023-06-19T16:11:10;27.40;74.00
60717;DHT22;46566;52.700;6.192;2023-06-19T16:13:36;27.40;73.80
60717;DHT22;46566;52.700;6.192;2023-06-19T16:16:01;27.40;73.90
60717;DHT22;46566;52.700;6.192;2023-06-19T16:18:27;27.40;73.90
60717;DHT22;46566;52.700;6.192;2023-06-19T16:21:18;27.40;73.70
60717;DHT22;46566;52.700;6.192;2023-06-19T16:35:00;27.20;72.60
60717;DHT22;46566;52.700;6.192;2023-06-19T16:37:26;27.00;73.20
60717;DHT22;46566;52.700;6.192;2023-06-19T16:42:43;26.90;73.20
60717;DHT22;46566;52.700;6.192;2023-06-19T16:45:09;26.90;72.90
60717;DHT22;46566;52.700;6.192;2023-06-19T16:47:35;26.80;72.90
60717;DHT22;46566;52.700;6.192;2023-06-19T16:50:01;26.80;72.60
60717;DHT22;46566;52.700;6.192;2023-06-19T16:52:27;26.80;72.30
60717;DHT22;46566;52.700;6.192;2023-06-19T16:55:09;26.70;72.90
60717;DHT22;46566;52.700;6.192;2023-06-19T16:57:35;26.70;73.20
60717;DHT22;46566;52.700;6.192;2023-06-19T17:00:01;26.60;73.20
60717;DHT22;46566;52.700;6.192;2023-06-19T17:02:26;26.60;72.20
60717;DHT22;46566;52.700;6.192;2023-06-19T17:04:52;26.60;72.50
60717;DHT22;46566;52.700;6.192;2023-06-19T17:07:43;26.60;72.30
60717;DHT22;46566;52.700;6.192;2023-06-19T17:13:10;26.50;70.80
60717;DHT22;46566;52.700;6.192;2023-06-19T17:15:36;26.50;71.50
60717;DHT22;46566;52.700;6.192;2023-06-19T17:18:02;26.50;70.60
60717;DHT22;46566;52.700;6.192;2023-06-19T17:20:28;26.50;71.00
60717;DHT22;46566;52.700;6.192;2023-06-19T17:22:54;26.50;70.10
60717;DHT22;46566;52.700;6.192;2023-06-19T17:25:44;26.50;69.80
60717;DHT22;46566;52.700;6.192;2023-06-19T17:28:11;26.40;68.90
60717;DHT22;46566;52.700;6.192;2023-06-19T17:30:37;26.40;68.30
60717;DHT22;46566;52.700;6.192;2023-06-19T17:33:05;26.40;68.00
60717;DHT22;46566;52.700;6.192;2023-06-19T17:35:59;26.40;69.80
60717;DHT22;46566;52.700;6.192;2023-06-19T17:39:09;26.40;68.50
60717;DHT22;46566;52.700;6.192;2023-06-19T17:41:36;26.40;69.20
60717;DHT22;46566;52.700;6.192;2023-06-19T17:44:05;26.40;69.50
60717;DHT22;46566;52.700;6.192;2023-06-19T17:46:31;26.40;69.20
60717;DHT22;46566;52.700;6.192;2023-06-19T17:49:15;26.40;70.10
60717;DHT22;46566;52.700;6.192;2023-06-19T17:51:44;26.40;70.20
60717;DHT22;46566;52.700;6.192;2023-06-19T17:54:09;26.40;69.80
60717;DHT22;46566;52.700;6.192;2023-06-19T17:56:35;26.30;69.60
60717;DHT22;46566;52.700;6.192;2023-06-19T17:59:01;26.20;69.00
60717;DHT22;46566;52.700;6.192;2023-06-19T18:01:46;26.20;69.60
60717;DHT22;46566;52.700;6.192;2023-06-19T18:04:15;26.10;70.80
60717;DHT22;46566;52.700;6.192;2023-06-19T18:06:40;26.10;71.50
60717;DHT22;46566;52.700;6.192;2023-06-19T18:09:06;26.10;71.80
60717;DHT22;46566;52.700;6.192;2023-06-19T18:11:58;26.00;71.50
60717;DHT22;46566;52.700;6.192;2023-06-19T18:14:24;25.90;71.30
60717;DHT22;46566;52.700;6.192;2023-06-19T18:16:55;25.80;71.40
60717;DHT22;46566;52.700;6.192;2023-06-19T18:19:39;25.80;72.10
60717;DHT22;46566;52.700;6.192;2023-06-19T18:22:04;25.70;72.50
60717;DHT22;46566;52.700;6.192;2023-06-19T18:24:30;25.70;72.80
60717;DHT22;46566;52.700;6.192;2023-06-19T18:26:56;25.70;72.80
60717;DHT22;46566;52.700;6.192;2023-06-19T18:29:22;25.60;72.40
60717;DHT22;46566;52.700;6.192;2023-06-19T18:32:14;25.50;72.30
60717;DHT22;46566;52.700;6.192;2023-06-19T18:34:39;25.50;73.10
60717;DHT22;46566;52.700;6.192;2023-06-19T18:37:05;25.50;72.90
60717;DHT22;46566;52.700;6.192;2023-06-19T18:39:31;25.40;73.20
60717;DHT22;46566;52.700;6.192;2023-06-19T18:44:55;25.30;73.60
60717;DHT22;46566;52.700;6.192;2023-06-19T18:47:21;25.10;73.50
60717;DHT22;46566;52.700;6.192;2023-06-19T18:50:12;25.10;73.40
60717;DHT22;46566;52.700;6.192;2023-06-19T18:52:39;25.10;73.80
60717;DHT22;46566;52.700;6.192;2023-06-19T18:58:00;25.00;74.10
60717;DHT22;46566;52.700;6.192;2023-06-19T19:00:31;25.00;74.10
60717;DHT22;46566;52.700;6.192;2023-06-19T19:02:57;24.90;74.20
60717;DHT22;46566;52.700;6.192;2023-06-19T19:05:23;24.90;74.40
60717;DHT22;46566;52.700;6.192;2023-06-19T19:08:15;24.80;74.60
60717;DHT22;46566;52.700;6.192;2023-06-19T19:13:44;24.70;75.60
60717;DHT22;46566;52.700;6.192;2023-06-19T19:16:10;24.60;76.60
60717;DHT22;46566;52.700;6.192;2023-06-19T19:18:35;24.60;77.20
60717;DHT22;46566;52.700;6.192;2023-06-19T19:21:01;24.50;77.80
60717;DHT22;46566;52.700;6.192;2023-06-19T19:23:27;24.40;78.40
60717;DHT22;46566;52.700;6.192;2023-06-19T19:26:18;24.40;78.90
60717;DHT22;46566;52.700;6.192;2023-06-19T19:28:44;24.30;79.40
60717;DHT22;46566;52.700;6.192;2023-06-19T19:31:10;24.30;79.70
60717;DHT22;46566;52.700;6.192;2023-06-19T19:33:35;24.20;80.10
60717;DHT22;46566;52.700;6.192;2023-06-19T19:36:26;24.20;80.40
60717;DHT22;46566;52.700;6.192;2023-06-19T19:38:52;24.10;80.90
60717;DHT22;46566;52.700;6.192;2023-06-19T19:41:17;24.10;80.90
60717;DHT22;46566;52.700;6.192;2023-06-19T19:43:43;24.00;81.70
60717;DHT22;46566;52.700;6.192;2023-06-19T19:46:34;24.00;82.30
60717;DHT22;46566;52.700;6.192;2023-06-19T19:49:00;23.90;82.10
60717;DHT22;46566;52.700;6.192;2023-06-19T19:51:26;23.90;82.30
60717;DHT22;46566;52.700;6.192;2023-06-19T19:53:51;23.80;82.90
60717;DHT22;46566;52.700;6.192;2023-06-19T19:56:42;23.70;82.90
60717;DHT22;46566;52.700;6.192;2023-06-19T19:59:08;23.70;83.50
60717;DHT22;46566;52.700;6.192;2023-06-19T20:01:34;23.60;83.60
60717;DHT22;46566;52.700;6.192;2023-06-19T20:03:59;23.60;83.50
60717;DHT22;46566;52.700;6.192;2023-06-19T20:06:25;23.60;83.90
60717;DHT22;46566;52.700;6.192;2023-06-19T20:08:52;23.50;84.00
60717;DHT22;46566;52.700;6.192;2023-06-19T20:11:17;23.50;84.10
60717;DHT22;46566;52.700;6.192;2023-06-19T20:13:43;23.40;84.10
60717;DHT22;46566;52.700;6.192;2023-06-19T20:16:08;23.40;84.00
60717;DHT22;46566;52.700;6.192;2023-06-19T20:18:35;23.30;84.60
60717;DHT22;46566;52.700;6.192;2023-06-19T20:21:00;23.30;84.70
60717;DHT22;46566;52.700;6.192;2023-06-19T20:23:26;23.20;84.40
60717;DHT22;46566;52.700;6.192;2023-06-19T20:25:52;23.20;84.80
60717;DHT22;46566;52.700;6.192;2023-06-19T20:28:17;23.00;85.40
60717;DHT22;46566;52.700;6.192;2023-06-19T20:30:44;23.00;85.70
60717;DHT22;46566;52.700;6.192;2023-06-19T20:33:10;22.90;86.30
60717;DHT22;46566;52.700;6.192;2023-06-19T20:35:36;22.90;86.90
60717;DHT22;46566;52.700;6.192;2023-06-19T20:38:02;22.80;86.60
60717;DHT22;46566;52.700;6.192;2023-06-19T20:40:27;22.80;87.00
60717;DHT22;46566;52.700;6.192;2023-06-19T20:42:53;22.80;87.40
60717;DHT22;46566;52.700;6.192;2023-06-19T20:45:19;22.70;87.40
60717;DHT22;46566;52.700;6.192;2023-06-19T20:47:46;22.60;87.80
60717;DHT22;46566;52.700;6.192;2023-06-19T20:50:12;22.60;88.30
60717;DHT22;46566;52.700;6.192;2023-06-19T20:55:06;22.40;88.80
60717;DHT22;46566;52.700;6.192;2023-06-19T20:57:32;22.40;90.20
60717;DHT22;46566;52.700;6.192;2023-06-19T20:59:58;22.30;90.20
60717;DHT22;46566;52.700;6.192;2023-06-19T21:02:23;22.30;90.40
60717;DHT22;46566;52.700;6.192;2023-06-19T21:04:49;22.20;90.60
60717;DHT22;46566;52.700;6.192;2023-06-19T21:07:15;22.20;90.70
60717;DHT22;46566;52.700;6.192;2023-06-19T21:09:40;22.20;90.70
60717;DHT22;46566;52.700;6.192;2023-06-19T21:12:07;22.10;90.90
60717;DHT22;46566;52.700;6.192;2023-06-19T21:14:32;22.10;91.60
60717;DHT22;46566;52.700;6.192;2023-06-19T21:16:59;22.00;91.40
60717;DHT22;46566;52.700;6.192;2023-06-19T21:19:25;22.00;91.70
60717;DHT22;46566;52.700;6.192;2023-06-19T21:21:51;21.90;91.90
60717;DHT22;46566;52.700;6.192;2023-06-19T21:24:16;21.80;92.10
60717;DHT22;46566;52.700;6.192;2023-06-19T21:26:42;21.70;92.50
60717;DHT22;46566;52.700;6.192;2023-06-19T21:29:44;21.70;93.30
60717;DHT22;46566;52.700;6.192;2023-06-19T21:32:25;21.60;93.60
60717;DHT22;46566;52.700;6.192;2023-06-19T21:34:57;21.50;93.70
60717;DHT22;46566;52.700;6.192;2023-06-19T21:37:36;21.50;94.50
60717;DHT22;46566;52.700;6.192;2023-06-19T21:40:06;21.40;95.00
60717;DHT22;46566;52.700;6.192;2023-06-19T21:42:45;21.40;95.10
60717;DHT22;46566;52.700;6.192;2023-06-19T21:45:15;21.30;96.40
60717;DHT22;46566;52.700;6.192;2023-06-19T21:47:50;21.30;96.10
60717;DHT22;46566;52.700;6.192;2023-06-19T21:50:33;21.20;96.90
60717;DHT22;46566;52.700;6.192;2023-06-19T21:53:21;21.10;97.50
60717;DHT22;46566;52.700;6.192;2023-06-19T21:56:27;21.10;97.70
60717;DHT22;46566;52.700;6.192;2023-06-19T21:59:51;21.10;98.00
60717;DHT22;46566;52.700;6.192;2023-06-19T22:02:34;21.00;98.70
60717;DHT22;46566;52.700;6.192;2023-06-19T22:05:33;21.00;98.50
60717;DHT22;46566;52.700;6.192;2023-06-19T22:08:35;21.00;98.90
60717;DHT22;46566;52.700;6.192;2023-06-19T22:11:30;21.00;99.50
60717;DHT22;46566;52.700;6.192;2023-06-19T22:14:02;21.00;99.50
60717;DHT22;46566;52.700;6.192;2023-06-19T22:16:28;20.90;99.90
60717;DHT22;46566;52.700;6.192;2023-06-19T22:18:54;20.90;99.90
60717;DHT22;46566;52.700;6.192;2023-06-19T22:21:19;20.90;99.90
60717;DHT22;46566;52.700;6.192;2023-06-19T22:23:45;20.80;99.90
60717;DHT22;46566;52.700;6.192;2023-06-19T22:26:11;20.80;99.90
60717;DHT22;46566;52.700;6.192;2023-06-19T22:28:36;20.70;99.90
60717;DHT22;46566;52.700;6.192;2023-06-19T22:31:02;20.70;99.90
60717;DHT22;46566;52.700;6.192;2023-06-19T22:33:28;20.70;99.90
60717;DHT22;46566;52.700;6.192;2023-06-19T22:35:53;20.60;99.90